Amagasaki, Japan
Current Conditions -  °F | °C
As of 3:00 PM on Saturday 20 Dec 2014 (Local Time) from RJOO Reporting Station
Rain Showers Rain Showers  
Wind Chill: 41°   Ceiling: 4000
Heat Index: 46°   Visibility: 4mi
Dew Point: 45°   Wind: 12mph
Humidity: 93%   Direction: 350°N
Pressure: 29.8"   Gusts: NA
Location:  34.71°N, 135.41°E
Report Text: RJOO 200600Z 35010KT 7000 SHRA FEW005 SCT015 BKN040 08/07 Q1009
Loading
Personal Weather Stations






























Interactive Weather Map New forecast layout! Learn more

10-Day Weather Forecast

Advertisements
Track Severe Weather on mobile